Time;durP1;ratioP1;P1;durP2;ratioP2;P2;SDS_P1;SDS_P2;PMS_P1;PMS_P2;Temp;Humidity;BMP_temperature;BMP_pressure;BME280_temperature;BME280_humidity;BME280_pressure;Samples;Min_cycle;Max_cycle;Signal;HPM_P1;HPM_P2
2022/09/12 00:00:22;;;;;;;11.77;7.40;;;;;;;;;;4989353;28;20284;-54
2022/09/12 00:02:55;;;;;;;10.10;7.00;;;;;;;;;;4986647;28;20224;-52
2022/09/12 00:05:21;;;;;;;10.00;6.90;;;;;;;;;;4991364;28;20288;-54
2022/09/12 00:07:47;;;;;;;9.13;6.77;;;;;;;;;;4987255;28;20300;-54
2022/09/12 00:10:14;;;;;;;10.50;7.40;;;;;;;;;;4971637;28;20279;-56
2022/09/12 00:12:40;;;;;;;10.93;7.00;;;;;;;;;;4989664;28;20284;-53
2022/09/12 00:15:07;;;;;;;8.53;6.37;;;;;;;;;;4989336;28;20296;-52
2022/09/12 00:17:34;;;;;;;10.00;6.83;;;;;;;;;;4988319;28;20307;-56
2022/09/12 00:20:01;;;;;;;10.73;7.13;;;;;;;;;;4972293;28;20640;-54
2022/09/12 00:22:28;;;;;;;10.77;7.30;;;;;;;;;;4984626;28;20799;-54
2022/09/12 00:24:54;;;;;;;11.10;7.03;;;;;;;;;;4982926;28;20724;-55
2022/09/12 00:27:20;;;;;;;10.20;6.90;;;;;;;;;;4990922;28;20219;-54
2022/09/12 00:29:47;;;;;;;11.53;6.87;;;;;;;;;;4988114;28;20208;-55
2022/09/12 00:32:13;;;;;;;9.27;6.87;;;;;;;;;;4988389;28;20205;-56
2022/09/12 00:34:39;;;;;;;10.33;7.23;;;;;;;;;;4985450;28;20284;-52
2022/09/12 00:37:06;;;;;;;10.93;6.83;;;;;;;;;;4984745;28;20648;-56
2022/09/12 00:39:32;;;;;;;9.80;6.53;;;;;;;;;;4986577;28;20724;-53
2022/09/12 00:41:58;;;;;;;12.80;6.37;;;;;;;;;;4989235;28;20291;-54
2022/09/12 00:44:25;;;;;;;8.07;6.33;;;;;;;;;;4987213;28;20296;-51
2022/09/12 00:47:00;;;;;;;8.97;6.13;;;;;;;;;;4985633;28;20296;-52
2022/09/12 00:49:55;;;;;;;10.00;6.80;;;;;;;;;;4971604;28;20320;-54
2022/09/12 00:52:35;;;;;;;10.23;6.63;;;;;;;;;;4980691;28;20285;-52
2022/09/12 00:55:07;;;;;;;8.93;6.40;;;;;;;;;;4966971;28;20677;-51
2022/09/12 00:57:37;;;;;;;10.73;6.97;;;;;;;;;;4968889;28;20315;-54
2022/09/12 01:00:14;;;;;;;11.83;6.97;;;;;;;;;;4964589;28;20276;-53
2022/09/12 01:02:43;;;;;;;9.93;6.20;;;;;;;;;;4987002;28;20288;-50
2022/09/12 01:05:10;;;;;;;8.27;6.10;;;;;;;;;;4973153;28;20207;-50
2022/09/12 01:07:37;;;;;;;9.53;6.13;;;;;;;;;;4987868;28;20719;-51
2022/09/12 01:10:06;;;;;;;9.87;5.90;;;;;;;;;;4987081;28;20622;-53
2022/09/12 01:12:33;;;;;;;9.77;6.53;;;;;;;;;;4987486;28;20772;-51
2022/09/12 01:15:00;;;;;;;9.47;6.07;;;;;;;;;;4970471;28;20288;-54
2022/09/12 01:17:33;;;;;;;11.43;6.13;;;;;;;;;;4983731;28;20694;-53
2022/09/12 01:20:34;;;;;;;11.80;6.40;;;;;;;;;;4969180;28;20203;-55
2022/09/12 01:23:11;;;;;;;8.20;6.10;;;;;;;;;;4982597;28;20279;-52
2022/09/12 01:25:50;;;;;;;9.57;6.27;;;;;;;;;;4977316;28;20279;-52
2022/09/12 01:28:49;;;;;;;11.10;6.40;;;;;;;;;;4981969;28;20311;-52
2022/09/12 01:31:25;;;;;;;13.67;6.30;;;;;;;;;;4933639;28;20296;-53
2022/09/12 01:34:14;;;;;;;10.23;6.53;;;;;;;;;;4981133;28;20804;-54
2022/09/12 01:36:56;;;;;;;10.67;6.00;;;;;;;;;;4967674;28;20221;-55
2022/09/12 01:39:29;;;;;;;8.47;6.17;;;;;;;;;;4987169;28;20642;-54
2022/09/12 01:41:58;;;;;;;9.30;6.27;;;;;;;;;;4984365;28;20930;-53
2022/09/12 01:44:34;;;;;;;8.70;6.00;;;;;;;;;;4986745;28;20211;-53
2022/09/12 01:47:11;;;;;;;8.70;5.93;;;;;;;;;;4958541;28;20295;-51
2022/09/12 01:49:53;;;;;;;9.17;6.27;;;;;;;;;;4963429;28;20685;-54
2022/09/12 01:52:26;;;;;;;11.93;6.37;;;;;;;;;;4986727;28;20228;-52
2022/09/12 01:55:12;;;;;;;9.67;6.30;;;;;;;;;;4987178;28;20284;-53
2022/09/12 01:57:43;;;;;;;10.60;6.30;;;;;;;;;;4964569;28;20728;-51
2022/09/12 02:00:11;;;;;;;8.50;5.60;;;;;;;;;;4969350;28;20292;-52
2022/09/12 02:02:41;;;;;;;9.17;6.10;;;;;;;;;;4968696;28;20292;-50
2022/09/12 02:05:10;;;;;;;8.73;6.50;;;;;;;;;;4968201;28;20284;-51
2022/09/12 02:08:03;;;;;;;9.97;6.13;;;;;;;;;;4970740;28;20220;-51
2022/09/12 02:10:33;;;;;;;7.90;5.67;;;;;;;;;;4973918;28;20223;-51
2022/09/12 02:13:11;;;;;;;8.43;6.10;;;;;;;;;;4966044;28;20277;-52
2022/09/12 02:15:46;;;;;;;9.30;6.23;;;;;;;;;;4965893;28;20335;-53
2022/09/12 02:18:16;;;;;;;8.83;6.10;;;;;;;;;;4981668;28;20582;-52
2022/09/12 02:20:44;;;;;;;7.53;5.53;;;;;;;;;;4971688;28;20287;-53
2022/09/12 02:23:26;;;;;;;8.43;5.93;;;;;;;;;;4969233;28;20597;-52
2022/09/12 02:26:00;;;;;;;8.47;6.07;;;;;;;;;;4967735;28;20628;-53
2022/09/12 02:28:31;;;;;;;8.60;6.30;;;;;;;;;;4987434;28;20575;-52
2022/09/12 02:31:19;;;;;;;9.03;6.10;;;;;;;;;;4971590;28;20300;-55
2022/09/12 02:34:09;;;;;;;10.77;5.97;;;;;;;;;;4986512;28;20228;-50
2022/09/12 02:36:58;;;;;;;10.57;5.93;;;;;;;;;;4984029;28;20307;-53
2022/09/12 02:39:24;;;;;;;9.47;6.03;;;;;;;;;;4970909;28;20287;-54
2022/09/12 02:41:51;;;;;;;9.23;6.20;;;;;;;;;;4969714;28;20576;-54
2022/09/12 02:44:18;;;;;;;8.73;6.03;;;;;;;;;;4987623;28;20225;-56
2022/09/12 02:46:48;;;;;;;8.37;6.07;;;;;;;;;;4965604;28;20308;-54
2022/09/12 02:49:15;;;;;;;8.30;6.00;;;;;;;;;;4970217;28;20752;-53
2022/09/12 02:51:42;;;;;;;8.87;6.13;;;;;;;;;;4968534;28;20288;-51
2022/09/12 02:54:09;;;;;;;9.77;6.70;;;;;;;;;;4986878;28;20203;-54
2022/09/12 02:56:41;;;;;;;8.20;6.43;;;;;;;;;;4969822;28;20312;-54
2022/09/12 02:59:09;;;;;;;8.47;5.73;;;;;;;;;;4971347;28;20240;-52
2022/09/12 03:01:53;;;;;;;9.33;6.10;;;;;;;;;;4970313;28;20318;-54
2022/09/12 03:04:45;;;;;;;9.57;6.00;;;;;;;;;;4982586;28;20197;-53
2022/09/12 03:07:30;;;;;;;8.27;5.77;;;;;;;;;;4970087;28;20311;-53
2022/09/12 03:10:21;;;;;;;8.87;5.67;;;;;;;;;;4987585;28;20219;-54
2022/09/12 03:13:05;;;;;;;8.20;5.37;;;;;;;;;;4986204;28;20205;-53
2022/09/12 03:15:39;;;;;;;7.77;5.63;;;;;;;;;;4989040;28;20775;-51
2022/09/12 03:18:30;;;;;;;8.87;6.20;;;;;;;;;;4968734;28;20311;-54
2022/09/12 03:21:03;;;;;;;8.30;6.00;;;;;;;;;;4986999;28;20203;-54
2022/09/12 03:23:33;;;;;;;13.00;6.30;;;;;;;;;;4970237;28;21409;-50
2022/09/12 03:26:05;;;;;;;8.50;6.00;;;;;;;;;;4958100;28;20284;-54
2022/09/12 03:28:33;;;;;;;10.27;6.00;;;;;;;;;;4974790;28;20284;-51
2022/09/12 03:31:10;;;;;;;10.53;6.43;;;;;;;;;;4972651;28;20201;-52
2022/09/12 03:33:37;;;;;;;8.47;6.20;;;;;;;;;;4987434;28;21068;-52
2022/09/12 03:36:03;;;;;;;10.37;6.70;;;;;;;;;;4990886;28;20287;-54
2022/09/12 03:38:29;;;;;;;9.80;6.30;;;;;;;;;;4968423;28;20748;-54
2022/09/12 03:40:56;;;;;;;8.13;5.93;;;;;;;;;;4983023;28;20240;-52
2022/09/12 03:43:22;;;;;;;8.80;6.33;;;;;;;;;;4991201;28;20284;-53
2022/09/12 03:45:52;;;;;;;11.23;6.50;;;;;;;;;;4987781;28;20294;-53
2022/09/12 03:48:18;;;;;;;9.53;6.17;;;;;;;;;;4988328;28;20232;-51
2022/09/12 03:50:45;;;;;;;11.27;6.00;;;;;;;;;;4987791;28;20201;-52
2022/09/12 03:53:11;;;;;;;9.87;6.13;;;;;;;;;;4983192;28;20292;-52
2022/09/12 03:55:42;;;;;;;9.97;6.07;;;;;;;;;;4989711;28;20247;-54
2022/09/12 03:58:08;;;;;;;8.40;5.70;;;;;;;;;;4986101;28;20316;-53
2022/09/12 04:00:36;;;;;;;8.17;5.70;;;;;;;;;;4985807;28;20292;-54
2022/09/12 04:03:02;;;;;;;8.53;5.87;;;;;;;;;;4985451;28;20643;-54
2022/09/12 04:05:29;;;;;;;8.13;6.07;;;;;;;;;;4984187;28;20289;-52
2022/09/12 04:07:55;;;;;;;7.70;5.70;;;;;;;;;;4977480;28;20921;-54
2022/09/12 04:10:21;;;;;;;11.07;6.37;;;;;;;;;;4988800;28;20292;-53
2022/09/12 04:12:47;;;;;;;9.67;6.13;;;;;;;;;;4980155;28;20244;-50
2022/09/12 04:15:14;;;;;;;8.60;6.27;;;;;;;;;;4983839;28;20275;-54
2022/09/12 04:17:40;;;;;;;7.20;5.43;;;;;;;;;;4979253;28;20315;-55
2022/09/12 04:20:07;;;;;;;7.67;5.67;;;;;;;;;;4986631;28;20315;-51
2022/09/12 04:22:33;;;;;;;9.23;6.03;;;;;;;;;;4984873;28;20209;-56
2022/09/12 04:24:59;;;;;;;7.93;6.03;;;;;;;;;;4984060;28;20247;-54
2022/09/12 04:27:26;;;;;;;10.13;6.23;;;;;;;;;;4979038;28;20305;-54
2022/09/12 04:29:54;;;;;;;8.67;6.30;;;;;;;;;;4985790;28;20288;-51
2022/09/12 04:32:21;;;;;;;7.97;5.77;;;;;;;;;;4985416;28;20310;-51
2022/09/12 04:34:47;;;;;;;11.17;6.47;;;;;;;;;;4988421;28;20323;-54
2022/09/12 04:37:13;;;;;;;13.33;6.43;;;;;;;;;;4987849;28;20669;-50
2022/09/12 04:39:40;;;;;;;9.30;6.27;;;;;;;;;;4988792;28;20340;-52
2022/09/12 04:42:06;;;;;;;8.83;6.03;;;;;;;;;;4985451;28;20211;-54
2022/09/12 04:44:32;;;;;;;7.93;5.83;;;;;;;;;;4985080;28;20390;-53
2022/09/12 04:46:59;;;;;;;7.13;5.37;;;;;;;;;;4980840;28;20316;-54
2022/09/12 04:49:25;;;;;;;7.80;5.43;;;;;;;;;;4978562;28;20294;-56
2022/09/12 04:51:53;;;;;;;8.50;5.80;;;;;;;;;;4976347;28;20280;-54
2022/09/12 04:54:20;;;;;;;8.43;6.13;;;;;;;;;;4984019;28;20288;-54
2022/09/12 04:56:48;;;;;;;8.47;5.63;;;;;;;;;;4978671;28;20653;-55
2022/09/12 04:59:16;;;;;;;8.23;6.03;;;;;;;;;;4985444;28;20718;-54
2022/09/12 05:01:43;;;;;;;8.43;5.60;;;;;;;;;;4988186;28;20284;-54
2022/09/12 05:04:11;;;;;;;8.40;5.90;;;;;;;;;;4986755;28;20284;-56
2022/09/12 05:06:39;;;;;;;8.87;6.20;;;;;;;;;;4986630;28;20410;-56
2022/09/12 05:09:07;;;;;;;11.00;6.00;;;;;;;;;;4983616;28;20631;-54
2022/09/12 05:11:36;;;;;;;7.70;5.67;;;;;;;;;;4990124;28;20293;-57
2022/09/12 05:14:23;;;;;;;9.10;5.87;;;;;;;;;;4979100;28;20205;-54
2022/09/12 05:16:49;;;;;;;8.50;6.20;;;;;;;;;;4984905;28;20256;-56
2022/09/12 05:19:16;;;;;;;10.03;5.97;;;;;;;;;;4984439;28;20253;-54
2022/09/12 05:21:42;;;;;;;8.17;5.90;;;;;;;;;;4975543;28;20288;-55
2022/09/12 05:24:09;;;;;;;8.97;6.40;;;;;;;;;;4981769;28;20288;-56
2022/09/12 05:26:36;;;;;;;8.70;6.27;;;;;;;;;;4965858;28;20224;-55
2022/09/12 05:29:03;;;;;;;8.23;5.90;;;;;;;;;;4982347;28;20332;-54
2022/09/12 05:31:29;;;;;;;8.90;6.03;;;;;;;;;;4980235;28;20647;-56
2022/09/12 05:33:56;;;;;;;8.73;6.23;;;;;;;;;;4980314;28;20296;-56
2022/09/12 05:36:28;;;;;;;8.50;6.07;;;;;;;;;;4981184;28;20740;-54
2022/09/12 05:38:55;;;;;;;8.13;6.10;;;;;;;;;;4981295;28;20248;-54
2022/09/12 05:41:24;;;;;;;8.57;6.40;;;;;;;;;;4982767;28;20292;-55
2022/09/12 05:44:01;;;;;;;9.20;5.97;;;;;;;;;;4976473;28;20283;-54
2022/09/12 05:46:30;;;;;;;9.67;6.30;;;;;;;;;;4976848;28;20229;-54
2022/09/12 05:49:02;;;;;;;9.23;6.47;;;;;;;;;;4968695;28;20299;-50
2022/09/12 05:51:32;;;;;;;9.73;5.93;;;;;;;;;;4984056;28;20239;-54
2022/09/12 05:54:00;;;;;;;9.43;6.40;;;;;;;;;;4976131;28;20724;-50
2022/09/12 05:56:28;;;;;;;8.97;6.53;;;;;;;;;;4975266;28;20263;-57
2022/09/12 05:58:58;;;;;;;9.07;6.43;;;;;;;;;;4983033;28;20863;-58
2022/09/12 06:01:25;;;;;;;8.40;5.60;;;;;;;;;;4983766;28;20301;-56
2022/09/12 06:03:53;;;;;;;7.93;5.80;;;;;;;;;;4986667;28;20207;-57
2022/09/12 06:06:22;;;;;;;10.70;6.83;;;;;;;;;;4980471;28;20666;-57
2022/09/12 06:08:51;;;;;;;9.40;5.97;;;;;;;;;;4981134;28;20197;-52
2022/09/12 06:11:24;;;;;;;8.47;5.40;;;;;;;;;;4980955;28;20737;-56
2022/09/12 06:13:51;;;;;;;8.97;5.40;;;;;;;;;;4974006;28;20201;-58
2022/09/12 06:16:23;;;;;;;8.87;5.30;;;;;;;;;;4979047;28;20217;-55
2022/09/12 06:18:52;;;;;;;7.20;5.03;;;;;;;;;;4980455;28;20224;-55
2022/09/12 06:21:20;;;;;;;14.57;6.00;;;;;;;;;;4982425;28;20280;-54
2022/09/12 06:23:47;;;;;;;8.57;5.63;;;;;;;;;;4985199;28;20205;-53
2022/09/12 06:26:16;;;;;;;9.03;5.73;;;;;;;;;;4979027;28;20307;-58
2022/09/12 06:28:43;;;;;;;9.13;5.87;;;;;;;;;;4987684;28;20303;-58
2022/09/12 06:31:15;;;;;;;10.30;5.93;;;;;;;;;;4971226;28;20203;-56
2022/09/12 06:33:43;;;;;;;8.97;5.63;;;;;;;;;;4988612;28;20245;-57
2022/09/12 06:36:18;;;;;;;8.07;5.93;;;;;;;;;;4995921;28;20232;-59
2022/09/12 06:38:47;;;;;;;10.63;6.90;;;;;;;;;;4983173;28;20512;-57
2022/09/12 06:41:14;;;;;;;11.97;6.50;;;;;;;;;;4987082;28;20196;-57
2022/09/12 06:43:41;;;;;;;11.67;6.53;;;;;;;;;;4987870;28;20291;-57
2022/09/12 06:46:08;;;;;;;10.60;5.90;;;;;;;;;;4968488;28;20283;-58
2022/09/12 06:48:35;;;;;;;11.47;5.97;;;;;;;;;;4986876;28;20287;-58
2022/09/12 06:51:12;;;;;;;15.18;7.88;;;;;;;;;;4979829;28;20713;-56
2022/09/12 06:53:39;;;;;;;18.27;9.35;;;;;;;;;;4983342;28;20687;-57
2022/09/12 06:56:08;;;;;;;16.13;8.73;;;;;;;;;;4960121;28;20275;-59
2022/09/12 06:58:35;;;;;;;17.60;8.93;;;;;;;;;;4960995;28;20217;-59
2022/09/12 07:01:07;;;;;;;17.10;9.68;;;;;;;;;;4982136;28;20656;-58
2022/09/12 07:03:34;;;;;;;14.90;8.30;;;;;;;;;;4979907;28;20539;-57
2022/09/12 07:06:05;;;;;;;12.02;7.90;;;;;;;;;;4979273;28;20339;-57
2022/09/12 07:08:32;;;;;;;13.90;8.98;;;;;;;;;;4983877;28;20732;-55
2022/09/12 07:11:06;;;;;;;14.20;8.00;;;;;;;;;;4985945;28;20554;-58
2022/09/12 07:13:33;;;;;;;16.00;8.20;;;;;;;;;;4984243;28;20892;-57
2022/09/12 07:16:04;;;;;;;15.02;8.00;;;;;;;;;;4987776;28;20197;-58
2022/09/12 07:18:32;;;;;;;14.27;8.25;;;;;;;;;;4980101;28;20300;-59
2022/09/12 07:21:00;;;;;;;13.43;7.60;;;;;;;;;;4980753;28;20236;-59
2022/09/12 07:23:28;;;;;;;14.65;7.60;;;;;;;;;;4980628;28;20292;-58
2022/09/12 07:25:56;;;;;;;17.30;8.30;;;;;;;;;;4980697;28;20289;-59
2022/09/12 07:28:26;;;;;;;12.00;7.32;;;;;;;;;;4981109;28;20296;-57
2022/09/12 07:30:52;;;;;;;12.65;7.82;;;;;;;;;;4979379;28;20299;-56
2022/09/12 07:33:20;;;;;;;13.82;7.70;;;;;;;;;;4977617;28;20232;-57
2022/09/12 07:35:46;;;;;;;11.57;6.90;;;;;;;;;;4985369;28;20204;-56
2022/09/12 07:38:13;;;;;;;12.75;7.93;;;;;;;;;;4983722;28;20271;-55
2022/09/12 07:40:39;;;;;;;12.77;7.30;;;;;;;;;;4980748;28;20223;-58
2022/09/12 07:43:05;;;;;;;9.77;6.78;;;;;;;;;;4981510;28;20201;-56
2022/09/12 07:45:32;;;;;;;10.40;6.40;;;;;;;;;;4982983;28;20571;-58
2022/09/12 07:47:58;;;;;;;11.45;7.40;;;;;;;;;;4965478;28;20244;-57
2022/09/12 07:50:25;;;;;;;7.38;5.80;;;;;;;;;;4981366;28;20288;-57
2022/09/12 07:52:54;;;;;;;8.05;6.20;;;;;;;;;;4978437;28;20293;-58
2022/09/12 07:55:21;;;;;;;7.65;5.60;;;;;;;;;;4981050;28;20292;-57
2022/09/12 07:57:51;;;;;;;8.88;5.35;;;;;;;;;;4979905;28;20311;-58
2022/09/12 08:00:18;;;;;;;8.93;5.47;;;;;;;;;;4982314;28;20639;-56
2022/09/12 08:02:44;;;;;;;7.13;5.43;;;;;;;;;;4984818;28;20201;-55
2022/09/12 08:05:10;;;;;;;8.20;5.32;;;;;;;;;;4980791;28;20276;-56
2022/09/12 08:07:37;;;;;;;8.02;5.80;;;;;;;;;;4982144;28;20224;-58
2022/09/12 08:10:04;;;;;;;9.43;5.68;;;;;;;;;;4988299;28;20281;-54
2022/09/12 08:12:31;;;;;;;6.90;5.40;;;;;;;;;;4989295;28;20307;-57
2022/09/12 08:14:57;;;;;;;8.82;6.47;;;;;;;;;;4983532;28;20657;-56
2022/09/12 08:17:23;;;;;;;7.43;5.28;;;;;;;;;;4984762;28;20312;-58
2022/09/12 08:19:50;;;;;;;10.05;6.10;;;;;;;;;;4980080;28;20223;-58
2022/09/12 08:22:20;;;;;;;6.78;5.20;;;;;;;;;;4967251;28;20283;-56
2022/09/12 08:24:47;;;;;;;11.13;5.82;;;;;;;;;;4979884;28;20255;-56
2022/09/12 08:27:14;;;;;;;8.57;5.50;;;;;;;;;;4980546;28;20217;-56
2022/09/12 08:29:40;;;;;;;7.28;5.45;;;;;;;;;;4981033;28;20259;-56
2022/09/12 08:32:07;;;;;;;8.23;5.60;;;;;;;;;;4982029;28;20288;-57
2022/09/12 08:34:33;;;;;;;7.32;5.25;;;;;;;;;;4983707;28;20295;-58
2022/09/12 08:36:59;;;;;;;7.90;5.85;;;;;;;;;;4980371;28;20328;-55
2022/09/12 08:39:26;;;;;;;7.03;4.68;;;;;;;;;;4982244;28;20240;-56
2022/09/12 08:42:01;;;;;;;9.05;5.28;;;;;;;;;;4978925;28;20777;-55
2022/09/12 08:44:46;;;;;;;8.85;5.47;;;;;;;;;;4977151;28;20730;-58
2022/09/12 08:47:21;;;;;;;7.00;4.97;;;;;;;;;;4981135;28;20772;-58
2022/09/12 08:49:50;;;;;;;6.88;5.15;;;;;;;;;;4972469;28;20636;-58
2022/09/12 08:52:28;;;;;;;11.45;6.65;;;;;;;;;;4960400;28;20233;-53
2022/09/12 08:54:55;;;;;;;5.22;4.63;;;;;;;;;;4969748;28;20218;-57
2022/09/12 08:57:22;;;;;;;6.38;5.00;;;;;;;;;;4967814;28;20256;-58
2022/09/12 08:59:50;;;;;;;9.48;5.00;;;;;;;;;;4968612;28;20244;-58
2022/09/12 09:02:44;;;;;;;8.38;5.20;;;;;;;;;;4982729;28;20563;-58
2022/09/12 09:05:34;;;;;;;6.22;4.57;;;;;;;;;;4981315;28;20478;-58
2022/09/12 09:08:25;;;;;;;7.90;4.40;;;;;;;;;;4973062;28;20304;-59
2022/09/12 09:11:10;;;;;;;7.07;4.60;;;;;;;;;;4967343;28;20199;-60
2022/09/12 09:16:47;;;;;;;7.75;4.85;;;;;;;;;;4985728;28;20716;-59
2022/09/12 09:19:24;;;;;;;6.03;4.80;;;;;;;;;;4970459;28;20244;-57
2022/09/12 09:21:55;;;;;;;6.93;4.53;;;;;;;;;;4966615;28;20670;-59
2022/09/12 09:24:26;;;;;;;6.18;4.57;;;;;;;;;;4962904;28;20200;-62
2022/09/12 09:27:05;;;;;;;6.75;4.72;;;;;;;;;;4982641;28;20228;-61
2022/09/12 09:29:53;;;;;;;5.25;4.50;;;;;;;;;;4982030;28;20189;-60
2022/09/12 09:32:30;;;;;;;5.28;4.53;;;;;;;;;;4968110;28;20519;-60
2022/09/12 09:34:56;;;;;;;5.63;4.82;;;;;;;;;;4966094;28;20201;-55
2022/09/12 09:37:29;;;;;;;6.53;4.40;;;;;;;;;;4983413;28;20250;-60
2022/09/12 09:40:26;;;;;;;5.13;4.30;;;;;;;;;;4983880;28;20775;-57
2022/09/12 09:43:18;;;;;;;6.15;4.35;;;;;;;;;;4966380;28;20303;-53
2022/09/12 09:45:44;;;;;;;7.80;4.53;;;;;;;;;;4984804;28;20292;-57
2022/09/12 09:48:31;;;;;;;5.40;4.53;;;;;;;;;;4984365;28;20300;-57
2022/09/12 09:51:00;;;;;;;10.23;5.13;;;;;;;;;;4987413;28;20300;-56
2022/09/12 09:53:35;;;;;;;5.65;4.15;;;;;;;;;;4988973;28;20215;-56
2022/09/12 09:56:06;;;;;;;6.97;4.28;;;;;;;;;;4981418;28;20279;-53
2022/09/12 09:58:33;;;;;;;7.55;4.60;;;;;;;;;;4964214;28;20740;-56
2022/09/12 10:01:02;;;;;;;6.95;4.22;;;;;;;;;;4980972;28;20307;-60
2022/09/12 10:03:38;;;;;;;5.22;4.25;;;;;;;;;;4969440;28;20292;-59
2022/09/12 10:06:08;;;;;;;6.32;4.82;;;;;;;;;;4967090;28;20231;-56
2022/09/12 10:08:37;;;;;;;5.57;4.22;;;;;;;;;;4967458;28;20281;-58
2022/09/12 10:11:18;;;;;;;7.03;4.38;;;;;;;;;;4983137;28;20197;-56
2022/09/12 10:13:56;;;;;;;7.80;4.80;;;;;;;;;;4972162;28;20287;-60
2022/09/12 10:16:26;;;;;;;5.60;4.38;;;;;;;;;;4965188;28;20311;-58
2022/09/12 10:18:55;;;;;;;6.25;4.68;;;;;;;;;;4963598;28;20633;-57
2022/09/12 10:21:44;;;;;;;5.82;4.43;;;;;;;;;;4967941;28;20295;-63
2022/09/12 10:24:31;;;;;;;6.05;4.13;;;;;;;;;;4964130;28;20283;-62
2022/09/12 10:27:11;;;;;;;7.45;4.50;;;;;;;;;;4978676;28;20304;-62
2022/09/12 10:29:45;;;;;;;7.00;4.43;;;;;;;;;;4981008;28;20284;-62
2022/09/12 10:32:18;;;;;;;5.78;4.60;;;;;;;;;;4985945;28;20289;-61
2022/09/12 10:34:44;;;;;;;5.50;4.65;;;;;;;;;;4981502;28;20232;-62
2022/09/12 10:37:23;;;;;;;5.43;4.40;;;;;;;;;;4966380;28;20298;-62
2022/09/12 10:39:52;;;;;;;5.85;4.90;;;;;;;;;;4979093;28;20347;-60
2022/09/12 10:42:48;;;;;;;5.70;4.82;;;;;;;;;;4965535;28;20232;-62
2022/09/12 10:45:36;;;;;;;8.43;5.22;;;;;;;;;;4980376;28;20296;-58
2022/09/12 10:48:27;;;;;;;6.45;4.40;;;;;;;;;;4981495;28;20221;-56
2022/09/12 10:50:55;;;;;;;8.45;4.88;;;;;;;;;;4979217;28;20563;-59
2022/09/12 10:53:25;;;;;;;5.78;4.47;;;;;;;;;;4982053;28;20507;-57
2022/09/12 10:56:02;;;;;;;5.32;4.18;;;;;;;;;;4984950;28;20197;-59
2022/09/12 10:58:48;;;;;;;6.30;4.78;;;;;;;;;;4984793;28;20233;-59
2022/09/12 11:01:20;;;;;;;5.20;4.50;;;;;;;;;;4982191;28;20304;-59
2022/09/12 11:04:18;;;;;;;7.10;4.50;;;;;;;;;;4985432;28;20217;-58
2022/09/12 11:07:09;;;;;;;6.47;4.85;;;;;;;;;;4966144;28;20312;-57
2022/09/12 11:09:51;;;;;;;8.57;4.28;;;;;;;;;;4982840;28;20287;-56
2022/09/12 11:12:31;;;;;;;5.85;4.10;;;;;;;;;;4985749;28;20224;-54
2022/09/12 11:15:10;;;;;;;6.55;4.82;;;;;;;;;;4962057;28;20699;-57
2022/09/12 11:18:00;;;;;;;5.88;4.85;;;;;;;;;;4966451;28;20252;-57
2022/09/12 11:20:51;;;;;;;4.72;4.22;;;;;;;;;;4986066;28;20248;-55
2022/09/12 11:23:36;;;;;;;6.95;4.82;;;;;;;;;;4970952;28;20405;-59
2022/09/12 11:26:31;;;;;;;5.22;4.25;;;;;;;;;;4989270;28;20812;-58
2022/09/12 11:29:19;;;;;;;6.05;3.90;;;;;;;;;;4969897;28;20236;-58
2022/09/12 11:32:17;;;;;;;6.35;4.70;;;;;;;;;;4973766;28;20599;-58
2022/09/12 11:34:52;;;;;;;5.05;4.45;;;;;;;;;;4945584;28;20292;-57
2022/09/12 11:37:29;;;;;;;5.65;4.28;;;;;;;;;;4977188;28;20219;-55
2022/09/12 11:39:59;;;;;;;5.22;4.55;;;;;;;;;;4974554;28;20227;-53
2022/09/12 11:42:34;;;;;;;5.40;4.40;;;;;;;;;;4956659;28;20205;-54
2022/09/12 11:45:39;;;;;;;5.65;4.30;;;;;;;;;;4959693;28;20201;-56
2022/09/12 11:48:10;;;;;;;5.50;4.30;;;;;;;;;;4976937;28;20228;-57
2022/09/12 11:50:37;;;;;;;7.32;4.20;;;;;;;;;;4967334;28;20672;-56
2022/09/12 11:53:16;;;;;;;8.77;4.82;;;;;;;;;;4975608;28;20197;-56
2022/09/12 11:55:55;;;;;;;9.05;5.45;;;;;;;;;;4962365;28;20351;-57
2022/09/12 11:58:24;;;;;;;6.78;4.57;;;;;;;;;;4966913;28;20197;-57
2022/09/12 12:00:53;;;;;;;7.07;4.40;;;;;;;;;;4974428;28;20644;-55
2022/09/12 12:03:29;;;;;;;6.25;4.53;;;;;;;;;;4968727;28;20204;-52
2022/09/12 12:06:18;;;;;;;5.13;4.30;;;;;;;;;;4973404;28;20208;-56
2022/09/12 12:08:45;;;;;;;7.55;4.47;;;;;;;;;;4963211;28;20401;-55
2022/09/12 12:11:14;;;;;;;5.32;4.43;;;;;;;;;;4979432;28;20197;-54
2022/09/12 12:13:58;;;;;;;5.60;4.07;;;;;;;;;;4967294;28;20197;-58
2022/09/12 12:16:30;;;;;;;4.60;3.95;;;;;;;;;;4988176;28;20851;-57
2022/09/12 12:18:59;;;;;;;5.25;4.38;;;;;;;;;;4969328;28;20293;-57
2022/09/12 12:21:33;;;;;;;7.97;4.00;;;;;;;;;;4980421;28;20915;-58
2022/09/12 12:24:06;;;;;;;5.03;4.05;;;;;;;;;;4972565;28;20200;-57
2022/09/12 12:26:38;;;;;;;7.97;4.30;;;;;;;;;;4990526;28;20319;-55
2022/09/12 12:29:10;;;;;;;4.65;3.95;;;;;;;;;;4984886;28;20558;-55
2022/09/12 12:31:58;;;;;;;4.07;3.53;;;;;;;;;;4967802;28;20216;-54
2022/09/12 12:34:42;;;;;;;4.25;3.63;;;;;;;;;;4987040;28;20197;-54
2022/09/12 12:37:17;;;;;;;4.18;3.60;;;;;;;;;;4989248;28;20299;-57
2022/09/12 12:39:46;;;;;;;5.18;4.00;;;;;;;;;;4981094;28;20201;-57
2022/09/12 12:42:36;;;;;;;4.72;3.78;;;;;;;;;;4983568;28;20292;-58
2022/09/12 12:45:05;;;;;;;4.47;3.80;;;;;;;;;;4979306;28;20319;-56
2022/09/12 12:47:38;;;;;;;4.28;3.60;;;;;;;;;;4985680;28;20734;-54
2022/09/12 12:50:09;;;;;;;5.13;3.42;;;;;;;;;;4979360;28;20283;-58
2022/09/12 12:52:47;;;;;;;4.75;3.78;;;;;;;;;;4978189;28;20205;-55
2022/09/12 12:55:22;;;;;;;4.63;3.80;;;;;;;;;;4986080;28;20235;-57
2022/09/12 12:57:51;;;;;;;6.03;3.80;;;;;;;;;;4983740;28;20323;-57
2022/09/12 13:00:26;;;;;;;4.32;3.33;;;;;;;;;;4985840;28;20343;-55
2022/09/12 13:03:06;;;;;;;4.63;4.00;;;;;;;;;;4977925;28;20295;-57
2022/09/12 13:05:40;;;;;;;4.05;3.47;;;;;;;;;;4964235;28;20626;-54
2022/09/12 13:08:16;;;;;;;3.72;3.38;;;;;;;;;;4985940;28;20314;-58
2022/09/12 13:10:57;;;;;;;4.75;3.53;;;;;;;;;;4984828;28;20292;-55
2022/09/12 13:13:31;;;;;;;4.53;3.60;;;;;;;;;;4984562;28;20283;-54
2022/09/12 13:15:57;;;;;;;5.10;3.55;;;;;;;;;;4982533;28;20502;-53
2022/09/12 13:18:45;;;;;;;4.43;3.75;;;;;;;;;;4979566;28;20220;-56
2022/09/12 13:21:17;;;;;;;4.15;3.70;;;;;;;;;;4962798;28;20590;-54
2022/09/12 13:23:44;;;;;;;3.22;2.92;;;;;;;;;;4981927;28;20205;-56
2022/09/12 13:26:13;;;;;;;4.28;3.50;;;;;;;;;;4975313;28;20212;-57
2022/09/12 13:28:39;;;;;;;4.53;3.60;;;;;;;;;;4982616;28;20779;-55
2022/09/12 13:31:38;;;;;;;4.00;3.45;;;;;;;;;;4982989;28;20236;-55
2022/09/12 13:34:05;;;;;;;5.22;3.33;;;;;;;;;;4913839;28;20339;-55
2022/09/12 13:36:41;;;;;;;4.85;3.67;;;;;;;;;;4980935;28;20213;-54
2022/09/12 13:39:17;;;;;;;4.53;3.53;;;;;;;;;;4985040;28;20279;-57
2022/09/12 13:42:02;;;;;;;4.80;3.67;;;;;;;;;;4961921;28;20308;-57
2022/09/12 13:44:30;;;;;;;4.50;3.17;;;;;;;;;;4982493;28;20295;-55
2022/09/12 13:47:00;;;;;;;4.47;3.38;;;;;;;;;;4963154;28;20308;-56
2022/09/12 13:49:32;;;;;;;3.83;3.35;;;;;;;;;;4981517;28;20292;-51
2022/09/12 13:52:17;;;;;;;3.70;3.30;;;;;;;;;;4980886;28;20292;-57
2022/09/12 13:54:46;;;;;;;3.80;3.17;;;;;;;;;;4982037;28;20503;-54
2022/09/12 13:57:28;;;;;;;4.80;3.40;;;;;;;;;;4983364;28;20488;-56
2022/09/12 13:59:56;;;;;;;4.72;3.63;;;;;;;;;;4983872;28;20668;-56
2022/09/12 14:02:24;;;;;;;3.65;3.00;;;;;;;;;;4977928;28;20252;-58
2022/09/12 14:05:10;;;;;;;4.25;2.90;;;;;;;;;;4987735;28;20232;-58
2022/09/12 14:07:44;;;;;;;3.17;2.88;;;;;;;;;;4977314;28;20219;-57
2022/09/12 14:10:15;;;;;;;3.03;2.72;;;;;;;;;;4985552;28;20311;-57
2022/09/12 14:12:44;;;;;;;3.95;2.90;;;;;;;;;;4945834;28;20231;-56
2022/09/12 14:15:16;;;;;;;3.35;2.85;;;;;;;;;;4966386;28;20209;-56
2022/09/12 14:17:51;;;;;;;4.63;2.92;;;;;;;;;;4964308;28;20315;-55
2022/09/12 14:20:18;;;;;;;3.45;2.80;;;;;;;;;;4976696;28;20192;-57
2022/09/12 14:22:45;;;;;;;3.17;2.60;;;;;;;;;;4976382;28;20202;-56
2022/09/12 14:25:21;;;;;;;2.80;2.47;;;;;;;;;;4959858;28;20205;-55
2022/09/12 14:27:51;;;;;;;3.10;2.40;;;;;;;;;;4960540;28;20308;-58
2022/09/12 14:30:29;;;;;;;2.55;2.35;;;;;;;;;;4978012;28;20785;-57
2022/09/12 14:33:10;;;;;;;3.35;2.63;;;;;;;;;;4975590;28;20276;-55
2022/09/12 14:35:38;;;;;;;2.80;2.45;;;;;;;;;;4972812;28;20304;-56
2022/09/12 14:38:20;;;;;;;3.00;2.60;;;;;;;;;;4949194;28;20299;-55
2022/09/12 14:40:58;;;;;;;2.50;2.20;;;;;;;;;;4976600;28;20231;-56
2022/09/12 14:43:27;;;;;;;2.83;2.10;;;;;;;;;;4971273;28;20604;-55
2022/09/12 14:45:58;;;;;;;2.90;2.53;;;;;;;;;;4958771;28;20224;-58
2022/09/12 14:48:27;;;;;;;3.42;2.30;;;;;;;;;;4978037;28;20295;-54
2022/09/12 14:50:53;;;;;;;3.53;2.25;;;;;;;;;;4986741;28;20731;-56
2022/09/12 14:53:36;;;;;;;3.33;2.55;;;;;;;;;;4988268;28;20219;-57
2022/09/12 14:56:11;;;;;;;2.78;2.45;;;;;;;;;;4984916;28;20296;-55
2022/09/12 14:58:39;;;;;;;3.38;2.90;;;;;;;;;;4983551;28;20234;-57
2022/09/12 15:01:05;;;;;;;6.43;3.00;;;;;;;;;;4981095;28;20221;-57
2022/09/12 15:03:44;;;;;;;2.85;2.55;;;;;;;;;;4983390;28;20332;-58
2022/09/12 15:06:31;;;;;;;4.53;2.72;;;;;;;;;;4980406;28;20695;-55
2022/09/12 15:09:01;;;;;;;3.60;2.97;;;;;;;;;;4964297;28;20729;-58
2022/09/12 15:11:27;;;;;;;3.50;2.75;;;;;;;;;;4968148;28;20630;-56
2022/09/12 15:13:54;;;;;;;4.03;3.05;;;;;;;;;;4977299;28;20529;-56
2022/09/12 15:16:21;;;;;;;3.60;2.97;;;;;;;;;;4982926;28;20248;-58